createdAt,value
2018-07-02T00:00:39.600Z,0.60
2018-07-02T00:03:08.458Z,0.50
2018-07-02T00:05:48.565Z,0.60
2018-07-02T00:08:17.724Z,0.70
2018-07-02T00:10:46.927Z,0.60
2018-07-02T00:13:16.727Z,0.50
2018-07-02T00:15:46.106Z,0.63
2018-07-02T00:18:15.203Z,0.70
2018-07-02T00:20:44.745Z,0.50
2018-07-02T00:23:13.678Z,0.70
2018-07-02T00:25:42.798Z,0.70
2018-07-02T00:28:11.593Z,0.53
2018-07-02T00:30:40.838Z,0.43
2018-07-02T00:33:09.677Z,0.70
2018-07-02T00:35:38.805Z,0.60
2018-07-02T00:38:08.071Z,0.70
2018-07-02T00:40:37.167Z,0.40
2018-07-02T00:43:06.400Z,0.40
2018-07-02T00:45:36.253Z,0.67
2018-07-02T00:48:06.288Z,0.60
2018-07-02T00:50:35.972Z,0.70
2018-07-02T00:53:06.208Z,0.50
2018-07-02T00:55:36.157Z,0.60
2018-07-02T00:58:06.273Z,0.50
2018-07-02T01:00:35.741Z,0.60
2018-07-02T01:03:04.614Z,0.60
2018-07-02T01:05:33.587Z,0.50
2018-07-02T01:08:02.974Z,0.50
2018-07-02T01:10:32.053Z,0.43
2018-07-02T01:13:01.455Z,0.80
2018-07-02T01:15:31.580Z,0.70
2018-07-02T01:18:00.644Z,0.60
2018-07-02T01:20:29.510Z,0.53
2018-07-02T01:22:59.083Z,0.53
2018-07-02T01:25:27.940Z,0.60
2018-07-02T01:27:57.403Z,0.60
2018-07-02T01:30:26.285Z,0.63
2018-07-02T01:32:55.154Z,0.77
2018-07-02T01:35:24.587Z,0.50
2018-07-02T01:37:53.938Z,0.40
2018-07-02T01:40:23.624Z,0.60
2018-07-02T01:42:52.502Z,0.80
2018-07-02T01:45:21.645Z,0.50
2018-07-02T01:47:50.717Z,0.50
2018-07-02T01:50:20.289Z,0.53
2018-07-02T01:52:49.100Z,0.47
2018-07-02T01:55:18.186Z,0.50
2018-07-02T01:57:47.075Z,0.83
2018-07-02T02:00:16.054Z,0.47
2018-07-02T02:02:45.176Z,0.70
2018-07-02T02:05:14.036Z,0.87
2018-07-02T02:07:43.164Z,0.60
2018-07-02T02:10:12.769Z,0.40
2018-07-02T02:12:42.351Z,0.77
2018-07-02T02:15:11.396Z,0.60
2018-07-02T02:17:40.458Z,0.60
2018-07-02T02:20:09.600Z,0.60
2018-07-02T02:22:38.766Z,0.40
2018-07-02T02:25:08.057Z,0.53
2018-07-02T02:27:37.124Z,0.63
2018-07-02T02:30:07.300Z,0.67
2018-07-02T02:32:36.896Z,0.70
2018-07-02T02:35:06.623Z,0.67
2018-07-02T02:37:35.870Z,0.53
2018-07-02T02:40:05.534Z,0.50
2018-07-02T02:42:35.113Z,0.80
2018-07-02T02:45:04.494Z,0.40
2018-07-02T02:47:33.423Z,0.70
2018-07-02T02:50:02.327Z,0.77
2018-07-02T02:52:31.292Z,0.70
2018-07-02T02:55:00.747Z,0.80
2018-07-02T02:57:29.859Z,1.27
2018-07-02T02:59:58.923Z,0.70
2018-07-02T03:02:27.792Z,0.50
2018-07-02T03:04:56.955Z,0.60
2018-07-02T03:07:26.125Z,0.70
2018-07-02T03:09:54.939Z,0.60
2018-07-02T03:12:24.269Z,0.80
2018-07-02T03:14:53.639Z,0.60
2018-07-02T03:17:22.647Z,1.00
2018-07-02T03:19:51.612Z,0.60
2018-07-02T03:22:20.477Z,0.90
2018-07-02T03:24:49.641Z,0.90
2018-07-02T03:27:18.633Z,0.50
2018-07-02T03:29:47.524Z,0.83
2018-07-02T03:32:16.369Z,0.70
2018-07-02T03:34:45.598Z,0.83
2018-07-02T03:37:14.480Z,0.87
2018-07-02T03:39:44.191Z,0.60
2018-07-02T03:42:13.747Z,0.67
2018-07-02T03:44:43.341Z,0.47
2018-07-02T03:47:12.254Z,0.57
2018-07-02T03:49:41.718Z,0.60
2018-07-02T03:52:10.943Z,0.50
2018-07-02T03:54:40.724Z,0.40
2018-07-02T03:57:09.807Z,0.70
2018-07-02T03:59:38.869Z,0.77
2018-07-02T04:02:07.718Z,0.73
2018-07-02T04:04:37.334Z,0.63
2018-07-02T04:07:06.139Z,0.60
2018-07-02T04:09:35.134Z,0.60
2018-07-02T04:12:03.975Z,0.40
2018-07-02T04:14:33.074Z,0.63
2018-07-02T04:17:02.624Z,0.50
2018-07-02T04:19:31.962Z,0.60
2018-07-02T04:22:00.764Z,0.70
2018-07-02T04:24:29.854Z,0.60
2018-07-02T04:26:59.091Z,0.50
2018-07-02T04:29:28.806Z,0.40
2018-07-02T04:31:58.107Z,0.63
2018-07-02T04:34:27.270Z,0.70
2018-07-02T04:36:56.930Z,0.70
2018-07-02T04:39:25.790Z,0.67
2018-07-02T04:41:55.521Z,0.63
2018-07-02T04:44:24.993Z,0.50
2018-07-02T04:46:53.830Z,0.50
2018-07-02T04:49:22.650Z,0.70
2018-07-02T04:51:51.928Z,0.50
2018-07-02T04:54:20.739Z,0.70
2018-07-02T04:56:49.798Z,0.63
2018-07-02T04:59:19.227Z,0.57
2018-07-02T05:01:48.328Z,0.60
2018-07-02T05:04:18.117Z,0.80
2018-07-02T05:06:47.032Z,0.57
2018-07-02T05:09:16.245Z,0.73
2018-07-02T05:11:45.195Z,0.60
2018-07-02T05:14:14.402Z,0.57
2018-07-02T05:16:43.246Z,0.60
2018-07-02T05:19:12.457Z,0.70
2018-07-02T05:21:41.662Z,0.63
2018-07-02T05:24:10.930Z,0.53
2018-07-02T05:26:39.784Z,0.87
2018-07-02T05:29:08.583Z,0.60
2018-07-02T05:31:37.756Z,0.70
2018-07-02T05:34:07.004Z,0.60
2018-07-02T05:36:35.955Z,0.80
2018-07-02T05:39:08.049Z,0.80
2018-07-02T05:41:37.171Z,0.60
2018-07-02T05:44:06.262Z,0.90
2018-07-02T05:46:35.397Z,0.70
2018-07-02T05:49:04.613Z,0.70
2018-07-02T05:51:34.017Z,0.40
2018-07-02T05:54:03.519Z,0.77
2018-07-02T05:56:32.424Z,0.70
2018-07-02T05:59:01.965Z,0.80
2018-07-02T06:01:31.166Z,0.83
2018-07-02T06:04:00.225Z,0.83
2018-07-02T06:06:29.559Z,1.20
2018-07-02T06:08:58.256Z,0.73
2018-07-02T06:11:27.123Z,0.80
2018-07-02T06:13:56.020Z,0.70
2018-07-02T06:16:24.914Z,0.67
2018-07-02T06:18:53.766Z,1.20
2018-07-02T06:21:22.551Z,0.80
2018-07-02T06:23:51.567Z,0.90
2018-07-02T06:26:21.168Z,0.83
2018-07-02T06:28:50.296Z,0.83
2018-07-02T06:31:19.146Z,0.70
2018-07-02T06:33:48.217Z,0.77
2018-07-02T06:36:17.177Z,0.70
2018-07-02T06:38:45.998Z,0.80
2018-07-02T06:41:15.680Z,0.60
2018-07-02T06:43:44.628Z,1.27
2018-07-02T06:46:13.466Z,0.80
2018-07-02T06:48:42.448Z,1.10
2018-07-02T06:51:11.365Z,0.70
2018-07-02T06:53:40.652Z,0.90
2018-07-02T06:56:09.828Z,0.60
2018-07-02T06:58:39.150Z,1.00
2018-07-02T07:01:08.143Z,0.47
2018-07-02T07:03:38.841Z,0.90
2018-07-02T07:06:08.107Z,0.80
2018-07-02T07:08:37.192Z,0.70
2018-07-02T07:11:06.196Z,0.60
2018-07-02T07:13:35.739Z,0.53
2018-07-02T07:16:04.724Z,0.50
2018-07-02T07:18:35.305Z,0.90
2018-07-02T07:21:04.281Z,0.60
2018-07-02T07:23:33.288Z,0.50
2018-07-02T07:26:02.989Z,1.60
2018-07-02T07:28:32.247Z,0.77
2018-07-02T07:31:01.777Z,0.60
2018-07-02T07:33:30.697Z,0.70
2018-07-02T07:36:00.261Z,0.80
2018-07-02T07:38:30.189Z,1.07
2018-07-02T07:40:59.190Z,0.53
2018-07-02T07:43:29.108Z,0.50
2018-07-02T07:45:58.476Z,0.70
2018-07-02T07:48:28.376Z,0.90
2018-07-02T07:50:57.637Z,0.80
2018-07-02T07:53:26.647Z,0.63
2018-07-02T07:55:55.737Z,0.93
2018-07-02T07:58:24.714Z,0.50
2018-07-02T08:00:53.790Z,0.80
2018-07-02T08:03:22.713Z,0.80
2018-07-02T08:05:51.658Z,0.67
2018-07-02T08:08:21.175Z,0.90
2018-07-02T08:10:50.136Z,0.80
2018-07-02T08:13:20.200Z,0.60
2018-07-02T08:15:49.518Z,0.83
2018-07-02T08:18:22.499Z,0.77
2018-07-02T08:20:58.115Z,0.60
2018-07-02T08:23:27.448Z,0.77
2018-07-02T08:25:59.271Z,0.70
2018-07-02T08:28:28.459Z,0.63
2018-07-02T08:30:57.760Z,0.70
2018-07-02T08:33:26.732Z,0.70
2018-07-02T08:35:56.027Z,0.70
2018-07-02T08:38:24.927Z,0.70
2018-07-02T08:40:54.107Z,0.90
2018-07-02T08:43:22.955Z,0.87
2018-07-02T08:45:52.024Z,0.90
2018-07-02T08:48:21.173Z,0.60
2018-07-02T08:50:49.982Z,0.90
2018-07-02T08:53:19.727Z,0.60
2018-07-02T08:55:48.579Z,0.57
2018-07-02T08:58:17.744Z,0.80
2018-07-02T09:00:46.870Z,0.50
2018-07-02T09:03:16.391Z,0.50
2018-07-02T09:05:45.503Z,1.00
2018-07-02T09:08:14.656Z,0.40
2018-07-02T09:10:43.971Z,0.47
2018-07-02T09:13:13.129Z,0.50
2018-07-02T09:15:42.537Z,0.50
2018-07-02T09:18:12.043Z,0.50
2018-07-02T09:20:41.241Z,0.50
2018-07-02T09:23:10.112Z,0.50
2018-07-02T09:25:39.230Z,0.60
2018-07-02T09:28:08.745Z,0.77
2018-07-02T09:30:37.804Z,0.50
2018-07-02T09:33:06.932Z,1.00
2018-07-02T09:35:35.850Z,0.40
2018-07-02T09:38:05.410Z,0.57
2018-07-02T09:40:34.737Z,0.40
2018-07-02T09:43:03.966Z,0.40
2018-07-02T09:45:33.274Z,0.60
2018-07-02T09:48:02.253Z,0.40
2018-07-02T09:50:31.533Z,0.50
2018-07-02T09:53:00.729Z,0.57
2018-07-02T09:55:30.249Z,0.60
2018-07-02T09:57:59.686Z,0.40
2018-07-02T10:00:28.988Z,0.50
2018-07-02T10:02:59.016Z,0.50
2018-07-02T10:05:28.267Z,0.50
2018-07-02T10:07:57.336Z,0.60
2018-07-02T10:10:26.194Z,0.60
2018-07-02T10:19:04.532Z,0.30
2018-07-02T10:21:33.480Z,0.40
2018-07-02T10:24:02.318Z,0.60
2018-07-02T10:26:31.267Z,0.50
2018-07-02T10:29:00.778Z,0.57
2018-07-02T10:31:29.979Z,0.50
2018-07-02T10:33:59.385Z,0.40
2018-07-02T10:36:28.571Z,0.40
2018-07-02T10:38:57.817Z,0.30
2018-07-02T10:41:26.950Z,0.83
2018-07-02T10:43:56.420Z,0.50
2018-07-02T10:46:25.281Z,0.40
2018-07-02T10:48:54.272Z,0.53
2018-07-02T10:51:23.292Z,0.67
2018-07-02T10:53:52.597Z,0.40
2018-07-02T10:56:21.533Z,0.50
2018-07-02T10:58:50.515Z,0.40
2018-07-02T11:01:20.234Z,0.60
2018-07-02T11:03:49.216Z,0.63
2018-07-02T11:06:18.398Z,0.60
2018-07-02T11:08:47.307Z,0.50
2018-07-02T11:11:16.352Z,0.60
2018-07-02T11:13:45.286Z,0.43
2018-07-02T11:16:15.065Z,0.90
2018-07-02T11:18:44.613Z,0.43
2018-07-02T11:21:14.246Z,0.50
2018-07-02T11:23:44.121Z,0.40
2018-07-02T11:26:14.747Z,0.50
2018-07-02T11:28:44.113Z,0.30
2018-07-02T11:31:13.398Z,0.47
2018-07-02T11:33:45.152Z,0.40
2018-07-02T11:36:15.254Z,0.50
2018-07-02T11:38:44.500Z,0.40
2018-07-02T11:41:14.023Z,0.50
2018-07-02T11:43:43.232Z,0.40
2018-07-02T11:46:12.721Z,0.40
2018-07-02T11:48:42.129Z,0.47
2018-07-02T11:51:11.508Z,0.50
2018-07-02T11:53:40.592Z,0.50
2018-07-02T11:56:09.621Z,0.60
2018-07-02T11:58:39.103Z,0.40
2018-07-02T12:01:08.062Z,0.40
2018-07-02T12:03:37.585Z,0.60
2018-07-02T12:06:06.961Z,0.70
2018-07-02T12:08:35.946Z,0.50
2018-07-02T12:11:05.021Z,0.60
2018-07-02T12:13:34.264Z,0.50
2018-07-02T12:16:03.288Z,0.50
2018-07-02T12:18:32.420Z,0.77
2018-07-02T12:21:01.504Z,0.47
2018-07-02T12:23:30.893Z,0.50
2018-07-02T12:25:59.901Z,0.40
2018-07-02T12:28:29.328Z,0.53
2018-07-02T12:30:58.645Z,0.50
2018-07-02T12:33:27.753Z,0.50
2018-07-02T12:35:57.077Z,0.63
2018-07-02T12:38:26.104Z,1.00
2018-07-02T12:40:55.847Z,0.53
2018-07-02T12:43:25.392Z,0.50
2018-07-02T12:45:54.780Z,0.60
2018-07-02T12:48:24.123Z,0.50
2018-07-02T12:50:53.359Z,0.80
2018-07-02T12:53:22.447Z,0.70
2018-07-02T12:55:51.738Z,0.70
2018-07-02T12:58:21.023Z,0.47
2018-07-02T13:00:50.167Z,0.50
2018-07-02T13:03:19.534Z,0.70
2018-07-02T13:05:48.777Z,0.60
2018-07-02T13:08:18.211Z,1.13
2018-07-02T13:10:47.211Z,0.53
2018-07-02T13:13:16.141Z,0.50
2018-07-02T13:15:45.135Z,0.97
2018-07-02T13:18:15.430Z,0.50
2018-07-02T13:20:45.037Z,0.73
2018-07-02T13:23:14.273Z,0.50
2018-07-02T13:25:43.545Z,0.53
2018-07-02T13:28:13.042Z,0.50
2018-07-02T13:30:42.582Z,0.50
2018-07-02T13:33:12.267Z,0.50
2018-07-02T13:35:41.261Z,0.70
2018-07-02T13:38:12.040Z,0.50
2018-07-02T13:40:41.853Z,0.63
2018-07-02T13:43:11.692Z,0.50
2018-07-02T13:45:40.637Z,0.53
2018-07-02T13:48:10.892Z,0.50
2018-07-02T13:50:41.045Z,0.47
2018-07-02T13:53:10.703Z,0.53
2018-07-02T13:55:40.674Z,0.40
2018-07-02T13:58:09.608Z,0.90
2018-07-02T14:00:38.561Z,0.70
2018-07-02T14:03:07.941Z,0.50
2018-07-02T14:05:36.958Z,0.77
2018-07-02T14:08:05.975Z,1.00
2018-07-02T14:10:36.106Z,1.40
2018-07-02T14:13:05.254Z,1.67
2018-07-02T14:15:34.343Z,1.50
2018-07-02T14:18:04.117Z,1.37
2018-07-02T14:20:33.386Z,2.10
2018-07-02T14:23:02.932Z,2.77
2018-07-02T14:25:32.125Z,2.77
2018-07-02T14:28:02.497Z,2.20
2018-07-02T14:30:32.895Z,2.43
2018-07-02T14:33:02.344Z,2.13
2018-07-02T14:35:31.935Z,1.60
2018-07-02T14:38:01.023Z,1.17
2018-07-02T14:40:30.118Z,1.10
2018-07-02T14:42:59.940Z,0.70
2018-07-02T14:45:29.686Z,0.83
2018-07-02T14:47:58.946Z,1.00
2018-07-02T14:50:28.169Z,0.80
2018-07-02T14:52:57.199Z,0.60
2018-07-02T14:55:26.417Z,0.67
2018-07-02T14:57:55.443Z,0.70
2018-07-02T15:00:24.729Z,0.60
2018-07-02T15:02:54.320Z,0.60
2018-07-02T15:05:25.770Z,2.07
2018-07-02T15:07:55.352Z,0.80
2018-07-02T15:10:24.787Z,0.70
2018-07-02T15:12:54.326Z,0.70
2018-07-02T15:15:23.412Z,0.60
2018-07-02T15:17:52.606Z,0.70
2018-07-02T15:20:22.224Z,0.63
2018-07-02T15:22:51.603Z,0.60
2018-07-02T15:25:21.622Z,0.50
2018-07-02T15:27:50.742Z,0.50
2018-07-02T15:30:20.172Z,0.50
2018-07-02T15:32:49.083Z,0.50
2018-07-02T15:35:18.047Z,1.00
2018-07-02T15:37:47.001Z,0.60
2018-07-02T15:40:16.213Z,0.50
2018-07-02T15:42:45.035Z,0.83
2018-07-02T15:45:14.191Z,0.83
2018-07-02T15:47:43.384Z,0.50
2018-07-02T15:50:12.620Z,0.50
2018-07-02T15:52:41.585Z,0.90
2018-07-02T15:55:11.078Z,0.60
2018-07-02T15:57:40.061Z,0.60
2018-07-02T16:00:09.263Z,0.60
2018-07-02T16:02:38.188Z,1.27
2018-07-02T16:05:07.215Z,0.90
2018-07-02T16:07:36.350Z,0.70
2018-07-02T16:10:05.572Z,0.80
2018-07-02T16:12:34.596Z,0.60
2018-07-02T16:15:03.823Z,0.87
2018-07-02T16:17:33.086Z,0.60
2018-07-02T16:20:02.729Z,5.27
2018-07-02T16:22:32.358Z,0.97
2018-07-02T16:25:01.362Z,0.63
2018-07-02T16:27:30.573Z,0.80
2018-07-02T16:30:00.236Z,0.60
2018-07-02T16:32:29.224Z,0.87
2018-07-02T16:34:59.713Z,0.90
2018-07-02T16:37:28.644Z,0.90
2018-07-02T16:39:58.320Z,0.70
2018-07-02T16:42:27.340Z,0.50
2018-07-02T16:44:56.621Z,0.90
2018-07-02T16:47:26.230Z,0.60
2018-07-02T16:49:55.102Z,1.90
2018-07-02T16:52:24.393Z,0.50
2018-07-02T16:54:53.631Z,0.63
2018-07-02T16:57:23.380Z,1.17
2018-07-02T16:59:52.375Z,0.50
2018-07-02T17:02:21.656Z,1.00
2018-07-02T17:04:50.537Z,0.70
2018-07-02T17:07:19.455Z,0.93
2018-07-02T17:09:48.304Z,0.50
2018-07-02T17:12:17.906Z,0.87
2018-07-02T17:14:46.814Z,0.50
2018-07-02T17:17:15.710Z,0.77
2018-07-02T17:19:44.612Z,0.57
2018-07-02T17:22:14.109Z,0.57
2018-07-02T17:24:43.353Z,0.67
2018-07-02T17:27:12.308Z,0.70
2018-07-02T17:29:41.309Z,0.50
2018-07-02T17:32:11.136Z,0.50
2018-07-02T17:34:40.042Z,0.90
2018-07-02T17:37:09.292Z,0.50
2018-07-02T17:39:38.766Z,0.60
2018-07-02T17:42:08.326Z,0.80
2018-07-02T17:44:37.580Z,0.70
2018-07-02T17:47:07.065Z,0.57
2018-07-02T17:49:36.656Z,0.63
2018-07-02T17:52:05.583Z,0.60
2018-07-02T17:54:34.873Z,0.70
2018-07-02T17:57:04.565Z,0.50
2018-07-02T17:59:34.268Z,0.60
2018-07-02T18:02:03.661Z,0.87
2018-07-02T18:04:33.069Z,0.57
2018-07-02T18:07:02.133Z,0.60
2018-07-02T18:09:31.350Z,0.80
2018-07-02T18:12:00.502Z,0.57
2018-07-02T18:14:29.975Z,0.60
2018-07-02T18:16:58.889Z,0.60
2018-07-02T18:19:28.432Z,0.40
2018-07-02T18:21:57.707Z,0.60
2018-07-02T18:24:26.808Z,0.60
2018-07-02T18:26:55.869Z,0.70
2018-07-02T18:29:25.620Z,0.70
2018-07-02T18:31:55.112Z,0.60
2018-07-02T18:34:24.049Z,0.50
2018-07-02T18:36:53.509Z,0.50
2018-07-02T18:39:22.780Z,0.50
2018-07-02T18:41:51.716Z,1.23
2018-07-02T18:44:20.750Z,0.80
2018-07-02T18:46:50.028Z,0.40
2018-07-02T18:49:18.933Z,0.43
2018-07-02T18:51:47.820Z,0.63
2018-07-02T18:54:16.752Z,0.60
2018-07-02T18:56:45.835Z,0.60
2018-07-02T18:59:14.713Z,0.50
2018-07-02T19:01:45.035Z,0.40
2018-07-02T19:04:14.951Z,0.40
2018-07-02T19:06:44.260Z,0.60
2018-07-02T19:09:13.069Z,0.37
2018-07-02T19:11:42.255Z,0.47
2018-07-02T19:14:11.943Z,0.40
2018-07-02T19:16:40.848Z,0.40
2018-07-02T19:19:10.098Z,0.40
2018-07-02T19:21:39.409Z,0.60
2018-07-02T19:24:08.409Z,0.80
2018-07-02T19:26:37.247Z,0.73
2018-07-02T19:29:06.397Z,0.60
2018-07-02T19:31:35.602Z,0.50
2018-07-02T19:34:05.903Z,0.60
2018-07-02T19:36:35.416Z,0.40
2018-07-02T19:39:05.316Z,0.40
2018-07-02T19:41:34.182Z,0.57
2018-07-02T19:44:03.366Z,0.40
2018-07-02T19:46:32.109Z,0.67
2018-07-02T19:49:01.334Z,0.90
2018-07-02T19:51:30.492Z,0.50
2018-07-02T19:53:59.651Z,0.50
2018-07-02T19:56:29.213Z,0.70
2018-07-02T19:58:58.290Z,0.50
2018-07-02T20:01:27.592Z,0.60
2018-07-02T20:03:56.745Z,0.90
2018-07-02T20:06:26.456Z,0.50
2018-07-02T20:08:55.933Z,0.40
2018-07-02T20:11:25.481Z,1.10
2018-07-02T20:13:55.143Z,0.50
2018-07-02T20:16:24.411Z,0.40
2018-07-02T20:18:53.650Z,0.50
2018-07-02T20:21:22.642Z,0.60
2018-07-02T20:23:51.899Z,0.50
2018-07-02T20:26:20.822Z,0.40
2018-07-02T20:28:49.667Z,0.50
2018-07-02T20:31:18.666Z,0.40
2018-07-02T20:33:47.720Z,1.73
2018-07-02T20:36:16.481Z,0.57
2018-07-02T20:38:45.271Z,0.47
2018-07-02T20:41:14.194Z,0.50
2018-07-02T20:43:43.028Z,0.50
2018-07-02T20:46:12.168Z,0.50
2018-07-02T20:48:41.210Z,0.60
2018-07-02T20:51:10.870Z,0.70
2018-07-02T20:53:40.252Z,0.50
2018-07-02T20:56:09.823Z,0.50
2018-07-02T20:58:38.991Z,0.70
2018-07-02T21:01:08.017Z,0.70
2018-07-02T21:03:37.537Z,0.50
2018-07-02T21:06:07.284Z,0.50
2018-07-02T21:08:36.160Z,0.63
2018-07-02T21:11:05.226Z,0.60
2018-07-02T21:13:34.537Z,0.60
2018-07-02T21:16:03.893Z,0.60
2018-07-02T21:18:32.723Z,0.60
2018-07-02T21:21:01.602Z,0.60
2018-07-02T21:23:30.798Z,1.20
2018-07-02T21:25:59.672Z,0.60
2018-07-02T21:28:29.477Z,0.67
2018-07-02T21:30:58.833Z,0.70
2018-07-02T21:33:27.949Z,0.70
2018-07-02T21:35:57.434Z,0.60
2018-07-02T21:38:26.356Z,0.73
2018-07-02T21:40:56.061Z,0.90
2018-07-02T21:43:25.963Z,1.03
2018-07-02T21:45:55.885Z,0.70
2018-07-02T21:48:25.553Z,0.70
2018-07-02T21:50:54.991Z,0.73
2018-07-02T21:53:24.119Z,0.80
2018-07-02T21:55:54.654Z,0.70
2018-07-02T21:58:24.561Z,0.83
2018-07-02T22:00:53.645Z,0.90
2018-07-02T22:03:23.111Z,0.87
2018-07-02T22:05:52.607Z,0.90
2018-07-02T22:08:21.903Z,1.10
2018-07-02T22:10:51.616Z,1.13
2018-07-02T22:13:20.476Z,1.07
2018-07-02T22:15:49.729Z,1.27
2018-07-02T22:18:18.830Z,0.90
2018-07-02T22:20:48.041Z,1.57
2018-07-02T22:23:17.485Z,0.90
2018-07-02T22:25:46.756Z,1.00
2018-07-02T22:28:15.863Z,0.77
2018-07-02T22:30:45.125Z,1.13
2018-07-02T22:33:14.584Z,1.20
2018-07-02T22:35:44.388Z,1.00
2018-07-02T22:38:13.185Z,0.90
2018-07-02T22:40:42.247Z,1.20
2018-07-02T22:43:11.622Z,1.30
2018-07-02T22:45:40.639Z,1.17
2018-07-02T22:48:09.671Z,1.10
2018-07-02T22:50:39.067Z,1.00
2018-07-02T22:53:08.694Z,1.60
2018-07-02T22:55:48.711Z,2.03
2018-07-02T22:58:18.454Z,1.20
2018-07-02T23:00:48.151Z,1.60
2018-07-02T23:03:17.771Z,2.23
2018-07-02T23:05:46.901Z,1.80
2018-07-02T23:08:16.160Z,1.77
2018-07-02T23:10:45.763Z,1.77
2018-07-02T23:13:14.913Z,1.70
2018-07-02T23:15:44.600Z,1.93
2018-07-02T23:18:13.884Z,1.90
2018-07-02T23:20:43.268Z,1.70
2018-07-02T23:23:12.249Z,1.60
2018-07-02T23:25:41.457Z,2.33
2018-07-02T23:28:10.760Z,2.40
2018-07-02T23:30:40.008Z,3.13
2018-07-02T23:33:09.650Z,2.30
2018-07-02T23:35:39.428Z,1.50
2018-07-02T23:38:08.946Z,1.60
2018-07-02T23:40:37.897Z,1.97
2018-07-02T23:43:06.958Z,1.90
2018-07-02T23:45:36.743Z,2.00
2018-07-02T23:48:06.218Z,2.20
2018-07-02T23:50:35.503Z,1.50
2018-07-02T23:53:04.612Z,2.20
2018-07-02T23:55:33.611Z,1.90
2018-07-02T23:58:02.838Z,2.40
